KPCD/PCD METAR and TAF weather

Enter ICAO airport designator
Station Type Date Time Source
KPCD METAR 2021/01/16 02:55 UTC NOAA

KPCD 160255Z AUTO 23008KT 7SM -SN SCT012 OVC020 00/00 A2960 RMK AO2 T00001003


Station Type Date Time Source
KPCD Decoded METAR 2021/01/16 02:55 UTC NOAA

Station name not available
Jan 15, 2021 - 09:55 PM EST / 2021.01.16 0255 UTC
Wind: from the SW (230 degrees) at 9 MPH (8 KT):0
Visibility: 7 mile(s):0
Sky conditions: overcast
Weather: light snow
Temperature: 32.0 F (0.0 C)
Windchill: 24 F (-4 C):1
Dew Point: 31.5 F (-0.3 C)
Relative Humidity: 97%
Pressure (altimeter): 29.6 in. Hg (1002 hPa)
ob: KPCD 160255Z AUTO 23008KT 7SM -SN SCT012 OVC020 00/00 A2960 RMK AO2 T00001003
cycle: 3

Station Type Date Time Source
KPCD TAF UTC NOAA

Error!

Example: see airport list